In Rescue
 
Open Full Screen Window  High Contrast Mode
Wind Gusting 00 knots
12
May 25, 2022 9:45 PM CDT
Present Weather: Light Drizzle
Weather Information
Wind Direction
  020 °
Wind Speed
  12 kt (14 mph)
Wind Gust
  00 kt (0 mph)
Altimeter
29.88 in
Visibility
7 SM
Temperature
09° C
48° F
Dewpoint
08° C
46° F
Humidity
94%
1hr Rain Fall
00.00 in.
24hr Rain Fall
00.02 in.
Sky Condition
Overcast @ 1,300 ft
Broken @ 600 ft
IFR

METAR KDVP 260245Z AUTO 02012KT 7SM -DZ BKN006 OVC013 09/08 A2988 RMK AO2 T00920084

FAA Disclaimer: The data displayed is for advisory purposes only and is not to be used for flight planning or operations.